sensor_id;sensor_type;location;lat;lon;timestamp;P1;durP1;ratioP1;P2;durP2;ratioP2
63010;SDS011;49100;48.842;2.166;2023-02-28T00:01:42;20.50;;;16.25;;
63010;SDS011;49100;48.842;2.166;2023-02-28T00:04:27;16.25;;;13.50;;
63010;SDS011;49100;48.842;2.166;2023-02-28T00:07:11;22.50;;;17.00;;
63010;SDS011;49100;48.842;2.166;2023-02-28T00:09:56;25.00;;;17.75;;
63010;SDS011;49100;48.842;2.166;2023-02-28T00:12:40;22.75;;;16.25;;
63010;SDS011;49100;48.842;2.166;2023-02-28T00:15:24;15.25;;;12.75;;
63010;SDS011;49100;48.842;2.166;2023-02-28T00:18:09;21.75;;;14.50;;
63010;SDS011;49100;48.842;2.166;2023-02-28T00:20:53;19.75;;;14.00;;
63010;SDS011;49100;48.842;2.166;2023-02-28T00:23:37;19.50;;;12.75;;
63010;SDS011;49100;48.842;2.166;2023-02-28T00:26:22;15.50;;;9.75;;
63010;SDS011;49100;48.842;2.166;2023-02-28T00:29:06;13.50;;;10.50;;
63010;SDS011;49100;48.842;2.166;2023-02-28T00:31:50;15.00;;;9.25;;
63010;SDS011;49100;48.842;2.166;2023-02-28T00:34:35;19.00;;;13.00;;
63010;SDS011;49100;48.842;2.166;2023-02-28T00:37:21;11.50;;;10.50;;
63010;SDS011;49100;48.842;2.166;2023-02-28T00:40:06;16.00;;;13.50;;
63010;SDS011;49100;48.842;2.166;2023-02-28T00:42:53;18.50;;;12.75;;
63010;SDS011;49100;48.842;2.166;2023-02-28T00:45:38;19.00;;;10.00;;
63010;SDS011;49100;48.842;2.166;2023-02-28T00:48:22;13.00;;;11.50;;
63010;SDS011;49100;48.842;2.166;2023-02-28T00:51:07;12.75;;;10.25;;
63010;SDS011;49100;48.842;2.166;2023-02-28T00:53:51;15.50;;;12.25;;
63010;SDS011;49100;48.842;2.166;2023-02-28T00:56:35;18.00;;;13.50;;
63010;SDS011;49100;48.842;2.166;2023-02-28T00:59:20;22.50;;;16.75;;
63010;SDS011;49100;48.842;2.166;2023-02-28T01:02:05;18.00;;;10.25;;
63010;SDS011;49100;48.842;2.166;2023-02-28T01:04:49;15.25;;;13.00;;
63010;SDS011;49100;48.842;2.166;2023-02-28T01:07:34;13.25;;;12.50;;
63010;SDS011;49100;48.842;2.166;2023-02-28T01:10:18;15.25;;;11.50;;
63010;SDS011;49100;48.842;2.166;2023-02-28T01:13:04;13.75;;;12.00;;
63010;SDS011;49100;48.842;2.166;2023-02-28T01:15:49;19.25;;;9.50;;
63010;SDS011;49100;48.842;2.166;2023-02-28T01:18:35;15.25;;;12.00;;
63010;SDS011;49100;48.842;2.166;2023-02-28T01:21:20;15.75;;;11.25;;
63010;SDS011;49100;48.842;2.166;2023-02-28T01:24:05;17.75;;;12.25;;
63010;SDS011;49100;48.842;2.166;2023-02-28T01:26:50;16.75;;;12.50;;
63010;SDS011;49100;48.842;2.166;2023-02-28T01:29:35;18.00;;;12.50;;
63010;SDS011;49100;48.842;2.166;2023-02-28T01:32:19;18.75;;;12.75;;
63010;SDS011;49100;48.842;2.166;2023-02-28T01:35:04;14.75;;;12.00;;
63010;SDS011;49100;48.842;2.166;2023-02-28T01:37:48;18.25;;;13.25;;
63010;SDS011;49100;48.842;2.166;2023-02-28T01:40:32;13.75;;;11.75;;
63010;SDS011;49100;48.842;2.166;2023-02-28T01:43:21;13.50;;;12.50;;
63010;SDS011;49100;48.842;2.166;2023-02-28T01:46:06;19.00;;;11.75;;
63010;SDS011;49100;48.842;2.166;2023-02-28T01:48:59;20.50;;;12.50;;
63010;SDS011;49100;48.842;2.166;2023-02-28T01:51:51;17.50;;;12.50;;
63010;SDS011;49100;48.842;2.166;2023-02-28T01:54:38;15.00;;;12.00;;
63010;SDS011;49100;48.842;2.166;2023-02-28T01:57:24;19.50;;;13.75;;
63010;SDS011;49100;48.842;2.166;2023-02-28T02:00:13;19.00;;;12.50;;
63010;SDS011;49100;48.842;2.166;2023-02-28T02:03:05;18.00;;;12.25;;
63010;SDS011;49100;48.842;2.166;2023-02-28T02:05:50;21.00;;;12.25;;
63010;SDS011;49100;48.842;2.166;2023-02-28T02:08:34;13.75;;;12.25;;
63010;SDS011;49100;48.842;2.166;2023-02-28T02:11:20;19.00;;;15.50;;
63010;SDS011;49100;48.842;2.166;2023-02-28T02:17:15;18.00;;;13.50;;
63010;SDS011;49100;48.842;2.166;2023-02-28T02:20:12;16.25;;;10.75;;
63010;SDS011;49100;48.842;2.166;2023-02-28T02:45:37;16.00;;;14.50;;
63010;SDS011;49100;48.842;2.166;2023-02-28T02:48:27;25.25;;;19.00;;
63010;SDS011;49100;48.842;2.166;2023-02-28T02:51:14;16.00;;;16.00;;
63010;SDS011;49100;48.842;2.166;2023-02-28T02:54:04;22.00;;;18.00;;
63010;SDS011;49100;48.842;2.166;2023-02-28T02:56:50;25.00;;;20.00;;
63010;SDS011;49100;48.842;2.166;2023-02-28T02:59:36;29.50;;;23.25;;
63010;SDS011;49100;48.842;2.166;2023-02-28T03:02:22;22.00;;;17.75;;
63010;SDS011;49100;48.842;2.166;2023-02-28T03:05:29;23.00;;;16.25;;
63010;SDS011;49100;48.842;2.166;2023-02-28T03:08:15;24.25;;;18.75;;
63010;SDS011;49100;48.842;2.166;2023-02-28T03:11:00;23.75;;;18.75;;
63010;SDS011;49100;48.842;2.166;2023-02-28T03:13:54;23.25;;;19.25;;
63010;SDS011;49100;48.842;2.166;2023-02-28T03:19:51;18.50;;;18.00;;
63010;SDS011;49100;48.842;2.166;2023-02-28T03:28:37;22.75;;;20.25;;
63010;SDS011;49100;48.842;2.166;2023-02-28T03:34:22;17.75;;;16.00;;
63010;SDS011;49100;48.842;2.166;2023-02-28T03:37:09;14.50;;;14.00;;
63010;SDS011;49100;48.842;2.166;2023-02-28T03:39:56;17.75;;;16.00;;
63010;SDS011;49100;48.842;2.166;2023-02-28T03:42:44;16.50;;;14.50;;
63010;SDS011;49100;48.842;2.166;2023-02-28T03:45:30;18.75;;;15.00;;
63010;SDS011;49100;48.842;2.166;2023-02-28T03:48:20;21.00;;;14.75;;
63010;SDS011;49100;48.842;2.166;2023-02-28T03:51:06;21.00;;;16.50;;
63010;SDS011;49100;48.842;2.166;2023-02-28T03:54:03;16.00;;;14.50;;
63010;SDS011;49100;48.842;2.166;2023-02-28T03:57:00;16.50;;;13.00;;
63010;SDS011;49100;48.842;2.166;2023-02-28T03:59:47;22.50;;;14.50;;
63010;SDS011;49100;48.842;2.166;2023-02-28T04:02:33;17.25;;;10.25;;
63010;SDS011;49100;48.842;2.166;2023-02-28T04:05:18;14.25;;;12.00;;
63010;SDS011;49100;48.842;2.166;2023-02-28T04:08:06;16.50;;;14.25;;
63010;SDS011;49100;48.842;2.166;2023-02-28T04:10:53;16.75;;;14.25;;
63010;SDS011;49100;48.842;2.166;2023-02-28T04:13:39;13.75;;;13.75;;
63010;SDS011;49100;48.842;2.166;2023-02-28T04:16:24;18.00;;;15.75;;
63010;SDS011;49100;48.842;2.166;2023-02-28T04:19:10;21.50;;;15.50;;
63010;SDS011;49100;48.842;2.166;2023-02-28T04:21:54;17.50;;;16.50;;
63010;SDS011;49100;48.842;2.166;2023-02-28T04:24:50;20.25;;;17.75;;
63010;SDS011;49100;48.842;2.166;2023-02-28T04:27:34;18.50;;;13.00;;
63010;SDS011;49100;48.842;2.166;2023-02-28T04:30:18;23.25;;;16.75;;
63010;SDS011;49100;48.842;2.166;2023-02-28T04:33:02;24.50;;;18.00;;
63010;SDS011;49100;48.842;2.166;2023-02-28T04:35:47;19.75;;;13.50;;
63010;SDS011;49100;48.842;2.166;2023-02-28T04:38:34;14.75;;;14.50;;
63010;SDS011;49100;48.842;2.166;2023-02-28T04:41:19;17.25;;;16.25;;
63010;SDS011;49100;48.842;2.166;2023-02-28T04:44:04;22.00;;;18.75;;
63010;SDS011;49100;48.842;2.166;2023-02-28T04:46:48;20.75;;;18.25;;
63010;SDS011;49100;48.842;2.166;2023-02-28T04:49:32;21.50;;;19.00;;
63010;SDS011;49100;48.842;2.166;2023-02-28T04:52:16;21.75;;;18.25;;
63010;SDS011;49100;48.842;2.166;2023-02-28T04:55:01;24.75;;;15.50;;
63010;SDS011;49100;48.842;2.166;2023-02-28T04:57:46;23.50;;;19.00;;
63010;SDS011;49100;48.842;2.166;2023-02-28T05:00:30;24.00;;;18.50;;
63010;SDS011;49100;48.842;2.166;2023-02-28T05:03:15;17.75;;;15.75;;
63010;SDS011;49100;48.842;2.166;2023-02-28T05:05:59;25.75;;;18.50;;
63010;SDS011;49100;48.842;2.166;2023-02-28T05:08:44;19.50;;;15.75;;
63010;SDS011;49100;48.842;2.166;2023-02-28T05:11:29;20.25;;;17.00;;
63010;SDS011;49100;48.842;2.166;2023-02-28T05:14:18;22.25;;;16.50;;
63010;SDS011;49100;48.842;2.166;2023-02-28T05:17:02;21.25;;;17.75;;
63010;SDS011;49100;48.842;2.166;2023-02-28T05:19:47;24.75;;;18.25;;
63010;SDS011;49100;48.842;2.166;2023-02-28T05:22:51;25.25;;;20.25;;
63010;SDS011;49100;48.842;2.166;2023-02-28T05:25:36;28.25;;;22.25;;
63010;SDS011;49100;48.842;2.166;2023-02-28T05:28:20;26.75;;;17.75;;
63010;SDS011;49100;48.842;2.166;2023-02-28T05:31:06;21.75;;;17.50;;
63010;SDS011;49100;48.842;2.166;2023-02-28T05:33:50;20.00;;;17.00;;
63010;SDS011;49100;48.842;2.166;2023-02-28T05:36:37;24.25;;;18.00;;
63010;SDS011;49100;48.842;2.166;2023-02-28T05:39:21;16.25;;;15.50;;
63010;SDS011;49100;48.842;2.166;2023-02-28T05:42:07;22.00;;;19.00;;
63010;SDS011;49100;48.842;2.166;2023-02-28T05:44:51;23.50;;;20.25;;
63010;SDS011;49100;48.842;2.166;2023-02-28T05:47:35;26.75;;;18.50;;
63010;SDS011;49100;48.842;2.166;2023-02-28T05:50:19;27.50;;;20.25;;
63010;SDS011;49100;48.842;2.166;2023-02-28T05:53:03;31.50;;;23.75;;
63010;SDS011;49100;48.842;2.166;2023-02-28T05:55:48;27.00;;;21.50;;
63010;SDS011;49100;48.842;2.166;2023-02-28T05:58:32;20.75;;;16.50;;
63010;SDS011;49100;48.842;2.166;2023-02-28T06:01:21;24.50;;;22.50;;
63010;SDS011;49100;48.842;2.166;2023-02-28T06:04:08;27.50;;;21.25;;
63010;SDS011;49100;48.842;2.166;2023-02-28T06:06:53;25.50;;;20.50;;
63010;SDS011;49100;48.842;2.166;2023-02-28T06:09:37;23.50;;;21.00;;
63010;SDS011;49100;48.842;2.166;2023-02-28T06:12:22;22.25;;;21.75;;
63010;SDS011;49100;48.842;2.166;2023-02-28T06:15:07;36.00;;;23.75;;
63010;SDS011;49100;48.842;2.166;2023-02-28T06:17:51;27.25;;;19.75;;
63010;SDS011;49100;48.842;2.166;2023-02-28T06:20:36;21.50;;;19.00;;
63010;SDS011;49100;48.842;2.166;2023-02-28T06:23:21;28.75;;;22.25;;
63010;SDS011;49100;48.842;2.166;2023-02-28T06:26:05;29.00;;;22.00;;
63010;SDS011;49100;48.842;2.166;2023-02-28T06:28:50;24.75;;;23.00;;
63010;SDS011;49100;48.842;2.166;2023-02-28T06:31:35;29.00;;;24.00;;
63010;SDS011;49100;48.842;2.166;2023-02-28T06:34:19;29.25;;;24.50;;
63010;SDS011;49100;48.842;2.166;2023-02-28T06:37:03;36.25;;;31.25;;
63010;SDS011;49100;48.842;2.166;2023-02-28T06:39:48;41.00;;;35.00;;
63010;SDS011;49100;48.842;2.166;2023-02-28T06:42:32;35.25;;;30.25;;
63010;SDS011;49100;48.842;2.166;2023-02-28T06:45:17;45.00;;;32.50;;
63010;SDS011;49100;48.842;2.166;2023-02-28T06:48:01;44.25;;;30.00;;
63010;SDS011;49100;48.842;2.166;2023-02-28T06:50:45;42.25;;;33.00;;
63010;SDS011;49100;48.842;2.166;2023-02-28T06:53:30;37.75;;;32.50;;
63010;SDS011;49100;48.842;2.166;2023-02-28T06:56:16;50.00;;;39.00;;
63010;SDS011;49100;48.842;2.166;2023-02-28T06:59:00;44.50;;;35.25;;
63010;SDS011;49100;48.842;2.166;2023-02-28T07:01:49;36.25;;;30.00;;
63010;SDS011;49100;48.842;2.166;2023-02-28T07:04:33;44.25;;;33.50;;
63010;SDS011;49100;48.842;2.166;2023-02-28T07:07:18;43.00;;;34.75;;
63010;SDS011;49100;48.842;2.166;2023-02-28T07:10:03;46.75;;;33.75;;
63010;SDS011;49100;48.842;2.166;2023-02-28T07:12:47;39.50;;;33.25;;
63010;SDS011;49100;48.842;2.166;2023-02-28T07:15:31;44.25;;;33.50;;
63010;SDS011;49100;48.842;2.166;2023-02-28T07:18:15;32.00;;;26.00;;
63010;SDS011;49100;48.842;2.166;2023-02-28T07:21:03;47.00;;;36.50;;
63010;SDS011;49100;48.842;2.166;2023-02-28T07:23:47;36.00;;;29.25;;
63010;SDS011;49100;48.842;2.166;2023-02-28T07:26:31;37.25;;;32.00;;
63010;SDS011;49100;48.842;2.166;2023-02-28T07:29:18;38.00;;;31.00;;
63010;SDS011;49100;48.842;2.166;2023-02-28T07:32:02;39.75;;;32.00;;
63010;SDS011;49100;48.842;2.166;2023-02-28T07:34:46;37.75;;;31.50;;
63010;SDS011;49100;48.842;2.166;2023-02-28T07:37:30;43.75;;;33.25;;
63010;SDS011;49100;48.842;2.166;2023-02-28T07:40:20;43.75;;;35.25;;
63010;SDS011;49100;48.842;2.166;2023-02-28T07:43:05;33.25;;;28.50;;
63010;SDS011;49100;48.842;2.166;2023-02-28T07:45:52;35.00;;;27.00;;
63010;SDS011;49100;48.842;2.166;2023-02-28T07:48:37;37.00;;;31.25;;
63010;SDS011;49100;48.842;2.166;2023-02-28T07:51:22;35.50;;;29.50;;
63010;SDS011;49100;48.842;2.166;2023-02-28T07:54:06;36.00;;;29.00;;
63010;SDS011;49100;48.842;2.166;2023-02-28T07:56:50;40.50;;;28.50;;
63010;SDS011;49100;48.842;2.166;2023-02-28T07:59:35;34.00;;;28.50;;
63010;SDS011;49100;48.842;2.166;2023-02-28T08:02:19;34.50;;;29.00;;
63010;SDS011;49100;48.842;2.166;2023-02-28T08:05:04;36.75;;;30.25;;
63010;SDS011;49100;48.842;2.166;2023-02-28T08:07:49;38.75;;;29.25;;
63010;SDS011;49100;48.842;2.166;2023-02-28T08:10:33;37.00;;;28.00;;
63010;SDS011;49100;48.842;2.166;2023-02-28T08:13:18;35.75;;;27.75;;
63010;SDS011;49100;48.842;2.166;2023-02-28T08:16:02;27.00;;;23.00;;
63010;SDS011;49100;48.842;2.166;2023-02-28T08:18:46;34.75;;;29.00;;
63010;SDS011;49100;48.842;2.166;2023-02-28T08:21:31;31.50;;;26.50;;
63010;SDS011;49100;48.842;2.166;2023-02-28T08:24:16;32.25;;;27.00;;
63010;SDS011;49100;48.842;2.166;2023-02-28T08:27:01;34.25;;;29.25;;
63010;SDS011;49100;48.842;2.166;2023-02-28T08:29:45;34.75;;;29.00;;
63010;SDS011;49100;48.842;2.166;2023-02-28T08:32:29;32.00;;;28.75;;
63010;SDS011;49100;48.842;2.166;2023-02-28T08:35:14;28.75;;;26.75;;
63010;SDS011;49100;48.842;2.166;2023-02-28T08:37:58;40.25;;;26.50;;
63010;SDS011;49100;48.842;2.166;2023-02-28T08:40:43;30.50;;;26.75;;
63010;SDS011;49100;48.842;2.166;2023-02-28T08:43:27;24.75;;;21.50;;
63010;SDS011;49100;48.842;2.166;2023-02-28T08:46:12;25.25;;;19.50;;
63010;SDS011;49100;48.842;2.166;2023-02-28T08:48:57;21.00;;;18.00;;
63010;SDS011;49100;48.842;2.166;2023-02-28T08:51:51;23.00;;;19.75;;
63010;SDS011;49100;48.842;2.166;2023-02-28T08:54:35;21.25;;;18.75;;
63010;SDS011;49100;48.842;2.166;2023-02-28T08:57:20;17.50;;;14.00;;
63010;SDS011;49100;48.842;2.166;2023-02-28T09:00:04;19.00;;;15.25;;
63010;SDS011;49100;48.842;2.166;2023-02-28T09:02:49;27.00;;;18.75;;
63010;SDS011;49100;48.842;2.166;2023-02-28T09:05:33;19.25;;;16.50;;
63010;SDS011;49100;48.842;2.166;2023-02-28T09:08:17;18.75;;;15.00;;
63010;SDS011;49100;48.842;2.166;2023-02-28T09:11:02;18.25;;;15.50;;
63010;SDS011;49100;48.842;2.166;2023-02-28T09:13:46;17.25;;;15.50;;
63010;SDS011;49100;48.842;2.166;2023-02-28T09:16:31;15.50;;;14.00;;
63010;SDS011;49100;48.842;2.166;2023-02-28T09:19:15;17.25;;;15.00;;
63010;SDS011;49100;48.842;2.166;2023-02-28T09:21:59;14.00;;;12.25;;
63010;SDS011;49100;48.842;2.166;2023-02-28T09:24:43;14.25;;;14.00;;
63010;SDS011;49100;48.842;2.166;2023-02-28T09:27:28;16.75;;;14.25;;
63010;SDS011;49100;48.842;2.166;2023-02-28T09:30:13;19.50;;;13.50;;
63010;SDS011;49100;48.842;2.166;2023-02-28T09:32:58;15.50;;;14.25;;
63010;SDS011;49100;48.842;2.166;2023-02-28T09:35:42;16.50;;;12.00;;
63010;SDS011;49100;48.842;2.166;2023-02-28T09:38:26;19.25;;;14.50;;
63010;SDS011;49100;48.842;2.166;2023-02-28T09:41:15;20.25;;;14.00;;
63010;SDS011;49100;48.842;2.166;2023-02-28T09:44:01;17.25;;;14.25;;
63010;SDS011;49100;48.842;2.166;2023-02-28T09:46:48;19.25;;;14.00;;
63010;SDS011;49100;48.842;2.166;2023-02-28T09:49:38;18.50;;;15.25;;
63010;SDS011;49100;48.842;2.166;2023-02-28T09:52:30;19.75;;;15.00;;
63010;SDS011;49100;48.842;2.166;2023-02-28T09:58:00;16.25;;;16.25;;
63010;SDS011;49100;48.842;2.166;2023-02-28T10:00:45;23.00;;;17.00;;
63010;SDS011;49100;48.842;2.166;2023-02-28T10:03:36;17.25;;;14.75;;
63010;SDS011;49100;48.842;2.166;2023-02-28T10:06:26;17.25;;;14.00;;
63010;SDS011;49100;48.842;2.166;2023-02-28T10:09:14;15.25;;;14.50;;
63010;SDS011;49100;48.842;2.166;2023-02-28T10:12:05;18.50;;;13.25;;
63010;SDS011;49100;48.842;2.166;2023-02-28T10:14:53;15.75;;;14.00;;
63010;SDS011;49100;48.842;2.166;2023-02-28T10:17:40;18.50;;;15.00;;
63010;SDS011;49100;48.842;2.166;2023-02-28T10:20:25;20.00;;;15.75;;
63010;SDS011;49100;48.842;2.166;2023-02-28T10:23:24;18.50;;;13.00;;
63010;SDS011;49100;48.842;2.166;2023-02-28T10:26:12;20.25;;;13.00;;
63010;SDS011;49100;48.842;2.166;2023-02-28T10:28:59;15.25;;;13.25;;
63010;SDS011;49100;48.842;2.166;2023-02-28T10:31:44;17.00;;;13.50;;
63010;SDS011;49100;48.842;2.166;2023-02-28T10:34:28;24.00;;;19.50;;
63010;SDS011;49100;48.842;2.166;2023-02-28T10:37:13;19.00;;;15.25;;
63010;SDS011;49100;48.842;2.166;2023-02-28T10:39:57;19.00;;;13.50;;
63010;SDS011;49100;48.842;2.166;2023-02-28T10:42:42;15.75;;;12.50;;
63010;SDS011;49100;48.842;2.166;2023-02-28T10:45:28;13.25;;;11.25;;
63010;SDS011;49100;48.842;2.166;2023-02-28T10:50:58;18.75;;;14.75;;
63010;SDS011;49100;48.842;2.166;2023-02-28T10:56:27;18.50;;;14.00;;
63010;SDS011;49100;48.842;2.166;2023-02-28T11:01:59;16.25;;;13.75;;
63010;SDS011;49100;48.842;2.166;2023-02-28T11:04:43;19.75;;;17.50;;
63010;SDS011;49100;48.842;2.166;2023-02-28T11:07:28;17.25;;;13.75;;
63010;SDS011;49100;48.842;2.166;2023-02-28T11:10:17;16.25;;;12.75;;
63010;SDS011;49100;48.842;2.166;2023-02-28T11:13:03;13.00;;;13.00;;
63010;SDS011;49100;48.842;2.166;2023-02-28T11:15:51;16.50;;;14.50;;
63010;SDS011;49100;48.842;2.166;2023-02-28T11:18:38;20.25;;;13.50;;
63010;SDS011;49100;48.842;2.166;2023-02-28T11:21:25;21.25;;;15.25;;
63010;SDS011;49100;48.842;2.166;2023-02-28T11:24:24;16.50;;;12.75;;
63010;SDS011;49100;48.842;2.166;2023-02-28T11:27:45;16.50;;;13.50;;
63010;SDS011;49100;48.842;2.166;2023-02-28T11:30:32;18.00;;;13.25;;
63010;SDS011;49100;48.842;2.166;2023-02-28T11:36:04;23.00;;;14.50;;
63010;SDS011;49100;48.842;2.166;2023-02-28T11:38:53;18.25;;;12.75;;
63010;SDS011;49100;48.842;2.166;2023-02-28T11:41:44;20.75;;;14.50;;
63010;SDS011;49100;48.842;2.166;2023-02-28T11:47:39;19.00;;;15.00;;
63010;SDS011;49100;48.842;2.166;2023-02-28T11:56:10;15.50;;;13.00;;
63010;SDS011;49100;48.842;2.166;2023-02-28T12:01:58;15.75;;;13.25;;
63010;SDS011;49100;48.842;2.166;2023-02-28T12:07:39;22.25;;;18.25;;
63010;SDS011;49100;48.842;2.166;2023-02-28T12:11:04;19.00;;;13.75;;
63010;SDS011;49100;48.842;2.166;2023-02-28T12:13:58;19.75;;;11.50;;
63010;SDS011;49100;48.842;2.166;2023-02-28T12:28:17;20.00;;;14.75;;
63010;SDS011;49100;48.842;2.166;2023-02-28T12:31:14;18.25;;;16.00;;
63010;SDS011;49100;48.842;2.166;2023-02-28T12:34:05;16.75;;;15.25;;
63010;SDS011;49100;48.842;2.166;2023-02-28T12:36:50;18.25;;;15.25;;
63010;SDS011;49100;48.842;2.166;2023-02-28T12:39:40;17.00;;;14.75;;
63010;SDS011;49100;48.842;2.166;2023-02-28T12:42:31;21.75;;;13.75;;
63010;SDS011;49100;48.842;2.166;2023-02-28T12:45:27;17.00;;;14.75;;
63010;SDS011;49100;48.842;2.166;2023-02-28T12:48:18;16.75;;;13.25;;
63010;SDS011;49100;48.842;2.166;2023-02-28T12:51:05;17.75;;;14.00;;
63010;SDS011;49100;48.842;2.166;2023-02-28T12:53:54;17.25;;;12.00;;
63010;SDS011;49100;48.842;2.166;2023-02-28T12:56:47;18.75;;;12.00;;
63010;SDS011;49100;48.842;2.166;2023-02-28T12:59:37;17.00;;;11.50;;
63010;SDS011;49100;48.842;2.166;2023-02-28T13:05:32;16.00;;;13.25;;
63010;SDS011;49100;48.842;2.166;2023-02-28T13:11:08;19.00;;;14.00;;
63010;SDS011;49100;48.842;2.166;2023-02-28T13:14:16;18.00;;;15.75;;
63010;SDS011;49100;48.842;2.166;2023-02-28T13:20:33;16.50;;;12.75;;
63010;SDS011;49100;48.842;2.166;2023-02-28T13:26:21;23.25;;;15.75;;
63010;SDS011;49100;48.842;2.166;2023-02-28T13:37:54;16.00;;;14.00;;
63010;SDS011;49100;48.842;2.166;2023-02-28T13:40:53;17.25;;;10.75;;
63010;SDS011;49100;48.842;2.166;2023-02-28T13:49:31;20.25;;;13.75;;
63010;SDS011;49100;48.842;2.166;2023-02-28T13:52:17;14.50;;;12.25;;
63010;SDS011;49100;48.842;2.166;2023-02-28T13:55:13;19.75;;;14.00;;
63010;SDS011;49100;48.842;2.166;2023-02-28T14:01:00;18.50;;;14.25;;
63010;SDS011;49100;48.842;2.166;2023-02-28T14:06:38;20.50;;;14.50;;
63010;SDS011;49100;48.842;2.166;2023-02-28T14:38:46;16.75;;;14.25;;
63010;SDS011;49100;48.842;2.166;2023-02-28T14:41:37;18.00;;;15.75;;
63010;SDS011;49100;48.842;2.166;2023-02-28T14:44:26;12.75;;;10.50;;
63010;SDS011;49100;48.842;2.166;2023-02-28T14:47:14;24.25;;;16.00;;
63010;SDS011;49100;48.842;2.166;2023-02-28T14:50:00;19.00;;;14.50;;
63010;SDS011;49100;48.842;2.166;2023-02-28T14:52:44;25.75;;;14.50;;
63010;SDS011;49100;48.842;2.166;2023-02-28T14:55:30;22.25;;;14.50;;
63010;SDS011;49100;48.842;2.166;2023-02-28T15:01:10;30.75;;;21.00;;
63010;SDS011;49100;48.842;2.166;2023-02-28T15:04:16;22.25;;;17.50;;
63010;SDS011;49100;48.842;2.166;2023-02-28T15:07:08;18.25;;;16.50;;
63010;SDS011;49100;48.842;2.166;2023-02-28T15:10:06;22.75;;;15.75;;
63010;SDS011;49100;48.842;2.166;2023-02-28T15:12:54;21.00;;;15.50;;
63010;SDS011;49100;48.842;2.166;2023-02-28T15:18:42;20.50;;;17.25;;
63010;SDS011;49100;48.842;2.166;2023-02-28T15:21:35;19.25;;;13.50;;
63010;SDS011;49100;48.842;2.166;2023-02-28T15:27:16;20.50;;;16.00;;
63010;SDS011;49100;48.842;2.166;2023-02-28T15:30:13;30.00;;;19.50;;
63010;SDS011;49100;48.842;2.166;2023-02-28T15:33:18;20.25;;;16.00;;
63010;SDS011;49100;48.842;2.166;2023-02-28T15:36:13;16.50;;;15.00;;
63010;SDS011;49100;48.842;2.166;2023-02-28T15:38:59;19.75;;;15.75;;
63010;SDS011;49100;48.842;2.166;2023-02-28T15:41:43;21.50;;;18.25;;
63010;SDS011;49100;48.842;2.166;2023-02-28T15:44:30;18.25;;;14.75;;
63010;SDS011;49100;48.842;2.166;2023-02-28T15:50:08;22.25;;;16.75;;
63010;SDS011;49100;48.842;2.166;2023-02-28T15:52:54;22.50;;;18.25;;
63010;SDS011;49100;48.842;2.166;2023-02-28T15:55:39;24.50;;;16.75;;
63010;SDS011;49100;48.842;2.166;2023-02-28T15:58:24;20.50;;;18.25;;
63010;SDS011;49100;48.842;2.166;2023-02-28T16:04:03;28.75;;;15.50;;
63010;SDS011;49100;48.842;2.166;2023-02-28T16:09:42;23.00;;;18.25;;
63010;SDS011;49100;48.842;2.166;2023-02-28T16:12:27;21.75;;;15.75;;
63010;SDS011;49100;48.842;2.166;2023-02-28T16:18:03;27.25;;;17.50;;
63010;SDS011;49100;48.842;2.166;2023-02-28T16:20:47;21.50;;;14.75;;
63010;SDS011;49100;48.842;2.166;2023-02-28T16:23:32;20.50;;;16.75;;
63010;SDS011;49100;48.842;2.166;2023-02-28T16:26:21;18.75;;;13.50;;
63010;SDS011;49100;48.842;2.166;2023-02-28T16:29:06;17.50;;;13.50;;
63010;SDS011;49100;48.842;2.166;2023-02-28T16:31:52;23.00;;;15.25;;
63010;SDS011;49100;48.842;2.166;2023-02-28T16:34:37;18.25;;;13.00;;
63010;SDS011;49100;48.842;2.166;2023-02-28T16:37:21;19.25;;;16.75;;
63010;SDS011;49100;48.842;2.166;2023-02-28T16:40:06;24.75;;;16.00;;
63010;SDS011;49100;48.842;2.166;2023-02-28T16:42:56;18.25;;;16.50;;
63010;SDS011;49100;48.842;2.166;2023-02-28T16:45:42;23.50;;;15.75;;
63010;SDS011;49100;48.842;2.166;2023-02-28T16:48:26;16.50;;;11.50;;
63010;SDS011;49100;48.842;2.166;2023-02-28T16:51:11;18.00;;;15.00;;
63010;SDS011;49100;48.842;2.166;2023-02-28T16:53:56;22.00;;;17.00;;
63010;SDS011;49100;48.842;2.166;2023-02-28T16:56:42;21.50;;;15.75;;
63010;SDS011;49100;48.842;2.166;2023-02-28T16:59:28;19.00;;;13.50;;
63010;SDS011;49100;48.842;2.166;2023-02-28T17:02:14;18.75;;;16.25;;
63010;SDS011;49100;48.842;2.166;2023-02-28T17:04:58;20.25;;;15.00;;
63010;SDS011;49100;48.842;2.166;2023-02-28T17:07:43;16.25;;;14.75;;
63010;SDS011;49100;48.842;2.166;2023-02-28T17:10:28;24.50;;;18.00;;
63010;SDS011;49100;48.842;2.166;2023-02-28T17:13:12;19.75;;;15.25;;
63010;SDS011;49100;48.842;2.166;2023-02-28T17:15:57;26.50;;;16.00;;
63010;SDS011;49100;48.842;2.166;2023-02-28T17:18:41;21.00;;;15.00;;
63010;SDS011;49100;48.842;2.166;2023-02-28T17:21:26;16.00;;;10.75;;
63010;SDS011;49100;48.842;2.166;2023-02-28T17:24:10;18.75;;;15.50;;
63010;SDS011;49100;48.842;2.166;2023-02-28T17:26:57;18.75;;;14.25;;
63010;SDS011;49100;48.842;2.166;2023-02-28T17:29:43;24.25;;;16.00;;
63010;SDS011;49100;48.842;2.166;2023-02-28T17:32:27;19.50;;;15.00;;
63010;SDS011;49100;48.842;2.166;2023-02-28T17:35:12;22.25;;;14.50;;
63010;SDS011;49100;48.842;2.166;2023-02-28T17:37:57;20.75;;;16.50;;
63010;SDS011;49100;48.842;2.166;2023-02-28T17:40:41;24.00;;;16.50;;
63010;SDS011;49100;48.842;2.166;2023-02-28T17:43:26;24.25;;;16.50;;
63010;SDS011;49100;48.842;2.166;2023-02-28T17:46:20;20.25;;;15.25;;
63010;SDS011;49100;48.842;2.166;2023-02-28T17:49:05;21.50;;;15.00;;
63010;SDS011;49100;48.842;2.166;2023-02-28T17:51:49;17.50;;;16.75;;
63010;SDS011;49100;48.842;2.166;2023-02-28T17:54:34;20.75;;;15.50;;
63010;SDS011;49100;48.842;2.166;2023-02-28T17:57:18;25.00;;;17.00;;
63010;SDS011;49100;48.842;2.166;2023-02-28T18:00:04;25.00;;;19.50;;
63010;SDS011;49100;48.842;2.166;2023-02-28T18:02:50;23.75;;;17.50;;
63010;SDS011;49100;48.842;2.166;2023-02-28T18:05:34;15.00;;;12.00;;
63010;SDS011;49100;48.842;2.166;2023-02-28T18:08:20;22.75;;;17.25;;
63010;SDS011;49100;48.842;2.166;2023-02-28T18:11:04;20.00;;;17.00;;
63010;SDS011;49100;48.842;2.166;2023-02-28T18:13:50;21.00;;;14.25;;
63010;SDS011;49100;48.842;2.166;2023-02-28T18:16:48;23.50;;;16.00;;
63010;SDS011;49100;48.842;2.166;2023-02-28T18:19:32;25.75;;;18.25;;
63010;SDS011;49100;48.842;2.166;2023-02-28T18:22:16;24.50;;;17.00;;
63010;SDS011;49100;48.842;2.166;2023-02-28T18:25:01;19.75;;;17.00;;
63010;SDS011;49100;48.842;2.166;2023-02-28T18:27:45;21.50;;;19.75;;
63010;SDS011;49100;48.842;2.166;2023-02-28T18:30:42;24.00;;;19.25;;
63010;SDS011;49100;48.842;2.166;2023-02-28T18:33:27;24.50;;;16.25;;
63010;SDS011;49100;48.842;2.166;2023-02-28T18:36:11;24.25;;;17.50;;
63010;SDS011;49100;48.842;2.166;2023-02-28T18:38:55;18.75;;;16.75;;
63010;SDS011;49100;48.842;2.166;2023-02-28T18:41:39;25.75;;;18.75;;
63010;SDS011;49100;48.842;2.166;2023-02-28T18:44:24;22.75;;;15.00;;
63010;SDS011;49100;48.842;2.166;2023-02-28T18:47:08;24.25;;;18.75;;
63010;SDS011;49100;48.842;2.166;2023-02-28T18:49:53;21.25;;;16.50;;
63010;SDS011;49100;48.842;2.166;2023-02-28T18:52:38;22.00;;;15.50;;
63010;SDS011;49100;48.842;2.166;2023-02-28T18:55:22;40.75;;;32.25;;